Corinne, Utah
Current Conditions -  °F | °C
As of 2:15 AM on Friday 31 Oct 2014 (Local Time) from KBMC Reporting Station
Clear Clear  
Wind Chill: 43°   Ceiling: Unl
Heat Index: 43°   Visibility: 10mi
Dew Point: 34°   Wind: 3mph
Humidity: 70%   Direction: 310°NW
Pressure: 30.07"   Gusts: NA
Location:  41.55°N, 112.11°W
Report Text: KBMC 310815Z AUTO 31003KT 10SM CLR 06/01 A3007 RMK AO1 T00630011
Loading
Personal Weather Stations






























Interactive Weather Map
Tropical Storm Tracking
New forecast layout! Learn more

10-Day Weather Forecast

Advertisements
Track Severe Weather on mobile